sensor_id;sensor_type;location;lat;lon;timestamp;temperature;humidity
18444;DHT22;9350;53.176;8.194;2023-04-12T00:02:03;7.10;99.90
18444;DHT22;9350;53.176;8.194;2023-04-12T00:04:30;7.10;99.90
18444;DHT22;9350;53.176;8.194;2023-04-12T00:06:58;7.10;99.90
18444;DHT22;9350;53.176;8.194;2023-04-12T00:09:27;7.20;99.90
18444;DHT22;9350;53.176;8.194;2023-04-12T00:11:57;7.20;99.90
18444;DHT22;9350;53.176;8.194;2023-04-12T00:14:24;7.20;99.90
18444;DHT22;9350;53.176;8.194;2023-04-12T00:16:50;7.30;99.90
18444;DHT22;9350;53.176;8.194;2023-04-12T00:19:17;7.20;99.90
18444;DHT22;9350;53.176;8.194;2023-04-12T00:21:44;7.20;99.90
18444;DHT22;9350;53.176;8.194;2023-04-12T00:24:11;7.30;99.90
18444;DHT22;9350;53.176;8.194;2023-04-12T00:26:38;7.40;99.90
18444;DHT22;9350;53.176;8.194;2023-04-12T00:29:06;7.40;99.90
18444;DHT22;9350;53.176;8.194;2023-04-12T00:31:33;7.40;99.90
18444;DHT22;9350;53.176;8.194;2023-04-12T00:34:00;7.40;99.90
18444;DHT22;9350;53.176;8.194;2023-04-12T00:36:26;7.50;99.90
18444;DHT22;9350;53.176;8.194;2023-04-12T00:38:53;7.40;99.90
18444;DHT22;9350;53.176;8.194;2023-04-12T00:41:20;7.40;99.90
18444;DHT22;9350;53.176;8.194;2023-04-12T00:43:48;7.50;99.90
18444;DHT22;9350;53.176;8.194;2023-04-12T00:46:17;7.50;99.90
18444;DHT22;9350;53.176;8.194;2023-04-12T00:48:45;7.40;99.90
18444;DHT22;9350;53.176;8.194;2023-04-12T00:51:13;7.50;99.90
18444;DHT22;9350;53.176;8.194;2023-04-12T00:53:39;7.40;99.90
18444;DHT22;9350;53.176;8.194;2023-04-12T00:56:07;7.50;99.90
18444;DHT22;9350;53.176;8.194;2023-04-12T00:58:36;7.50;99.90
18444;DHT22;9350;53.176;8.194;2023-04-12T01:01:03;7.50;99.90
18444;DHT22;9350;53.176;8.194;2023-04-12T01:03:31;7.50;99.90
18444;DHT22;9350;53.176;8.194;2023-04-12T01:06:15;7.50;99.90
18444;DHT22;9350;53.176;8.194;2023-04-12T01:08:52;7.50;99.90
18444;DHT22;9350;53.176;8.194;2023-04-12T01:11:28;7.50;99.90
18444;DHT22;9350;53.176;8.194;2023-04-12T01:14:00;7.50;99.90
18444;DHT22;9350;53.176;8.194;2023-04-12T01:16:32;7.50;99.90
18444;DHT22;9350;53.176;8.194;2023-04-12T01:19:08;7.50;99.90
18444;DHT22;9350;53.176;8.194;2023-04-12T01:21:46;7.50;99.90
18444;DHT22;9350;53.176;8.194;2023-04-12T01:24:24;7.50;99.90
18444;DHT22;9350;53.176;8.194;2023-04-12T01:26:54;7.60;99.90
18444;DHT22;9350;53.176;8.194;2023-04-12T01:29:28;7.60;99.90
18444;DHT22;9350;53.176;8.194;2023-04-12T01:31:58;7.60;99.90
18444;DHT22;9350;53.176;8.194;2023-04-12T01:34:28;7.60;99.90
18444;DHT22;9350;53.176;8.194;2023-04-12T01:36:57;7.60;99.90
18444;DHT22;9350;53.176;8.194;2023-04-12T01:39:24;7.50;99.90
18444;DHT22;9350;53.176;8.194;2023-04-12T01:41:51;7.60;99.90
18444;DHT22;9350;53.176;8.194;2023-04-12T01:44:18;7.50;99.90
18444;DHT22;9350;53.176;8.194;2023-04-12T01:46:47;7.50;99.90
18444;DHT22;9350;53.176;8.194;2023-04-12T01:49:15;7.60;99.90
18444;DHT22;9350;53.176;8.194;2023-04-12T01:51:54;7.60;99.90
18444;DHT22;9350;53.176;8.194;2023-04-12T01:54:26;7.60;99.90
18444;DHT22;9350;53.176;8.194;2023-04-12T01:56:55;7.60;99.90
18444;DHT22;9350;53.176;8.194;2023-04-12T01:59:26;7.70;99.90
18444;DHT22;9350;53.176;8.194;2023-04-12T02:01:55;7.70;99.90
18444;DHT22;9350;53.176;8.194;2023-04-12T02:04:22;7.60;99.90
18444;DHT22;9350;53.176;8.194;2023-04-12T02:06:52;7.70;99.90
18444;DHT22;9350;53.176;8.194;2023-04-12T02:09:20;7.70;99.90
18444;DHT22;9350;53.176;8.194;2023-04-12T02:11:48;7.70;99.90
18444;DHT22;9350;53.176;8.194;2023-04-12T02:14:15;7.60;99.90
18444;DHT22;9350;53.176;8.194;2023-04-12T02:16:42;7.70;99.90
18444;DHT22;9350;53.176;8.194;2023-04-12T02:19:11;7.60;99.90
18444;DHT22;9350;53.176;8.194;2023-04-12T02:21:39;7.60;99.90
18444;DHT22;9350;53.176;8.194;2023-04-12T02:24:06;7.60;99.90
18444;DHT22;9350;53.176;8.194;2023-04-12T02:26:33;7.60;99.90
18444;DHT22;9350;53.176;8.194;2023-04-12T02:29:00;7.70;99.90
18444;DHT22;9350;53.176;8.194;2023-04-12T02:31:27;7.60;99.90
18444;DHT22;9350;53.176;8.194;2023-04-12T02:33:55;7.60;99.90
18444;DHT22;9350;53.176;8.194;2023-04-12T02:36:23;7.60;99.90
18444;DHT22;9350;53.176;8.194;2023-04-12T02:38:49;7.60;99.90
18444;DHT22;9350;53.176;8.194;2023-04-12T02:41:16;7.70;99.90
18444;DHT22;9350;53.176;8.194;2023-04-12T02:43:43;7.60;99.90
18444;DHT22;9350;53.176;8.194;2023-04-12T02:46:13;7.60;99.90
18444;DHT22;9350;53.176;8.194;2023-04-12T02:48:40;7.60;99.90
18444;DHT22;9350;53.176;8.194;2023-04-12T02:51:07;7.60;99.90
18444;DHT22;9350;53.176;8.194;2023-04-12T02:53:35;7.70;99.90
18444;DHT22;9350;53.176;8.194;2023-04-12T02:56:03;7.70;99.90
18444;DHT22;9350;53.176;8.194;2023-04-12T02:58:30;7.70;99.90
18444;DHT22;9350;53.176;8.194;2023-04-12T03:00:58;7.70;99.90
18444;DHT22;9350;53.176;8.194;2023-04-12T03:03:24;7.70;99.90
18444;DHT22;9350;53.176;8.194;2023-04-12T03:05:53;7.70;99.90
18444;DHT22;9350;53.176;8.194;2023-04-12T03:08:20;7.70;99.90
18444;DHT22;9350;53.176;8.194;2023-04-12T03:10:48;7.70;99.90
18444;DHT22;9350;53.176;8.194;2023-04-12T03:13:15;7.70;99.90
18444;DHT22;9350;53.176;8.194;2023-04-12T03:15:41;7.70;99.90
18444;DHT22;9350;53.176;8.194;2023-04-12T03:18:09;7.70;99.90
18444;DHT22;9350;53.176;8.194;2023-04-12T03:20:36;7.70;99.90
18444;DHT22;9350;53.176;8.194;2023-04-12T03:23:06;7.80;99.90
18444;DHT22;9350;53.176;8.194;2023-04-12T03:25:32;7.80;99.90
18444;DHT22;9350;53.176;8.194;2023-04-12T03:28:02;7.80;99.90
18444;DHT22;9350;53.176;8.194;2023-04-12T03:30:29;7.80;99.90
18444;DHT22;9350;53.176;8.194;2023-04-12T03:32:56;7.80;99.90
18444;DHT22;9350;53.176;8.194;2023-04-12T03:35:23;7.80;99.90
18444;DHT22;9350;53.176;8.194;2023-04-12T03:37:49;7.80;99.90
18444;DHT22;9350;53.176;8.194;2023-04-12T03:40:16;7.80;99.90
18444;DHT22;9350;53.176;8.194;2023-04-12T03:42:43;7.80;99.90
18444;DHT22;9350;53.176;8.194;2023-04-12T03:45:11;7.80;99.90
18444;DHT22;9350;53.176;8.194;2023-04-12T03:47:38;7.80;99.90
18444;DHT22;9350;53.176;8.194;2023-04-12T03:50:06;7.70;99.90
18444;DHT22;9350;53.176;8.194;2023-04-12T03:52:35;7.70;99.90
18444;DHT22;9350;53.176;8.194;2023-04-12T03:55:01;7.70;99.90
18444;DHT22;9350;53.176;8.194;2023-04-12T03:57:30;7.70;99.90
18444;DHT22;9350;53.176;8.194;2023-04-12T03:59:57;7.60;99.90
18444;DHT22;9350;53.176;8.194;2023-04-12T04:02:25;7.70;99.90
18444;DHT22;9350;53.176;8.194;2023-04-12T04:04:52;7.70;99.90
18444;DHT22;9350;53.176;8.194;2023-04-12T04:07:19;7.60;99.90
18444;DHT22;9350;53.176;8.194;2023-04-12T04:09:45;7.60;99.90
18444;DHT22;9350;53.176;8.194;2023-04-12T04:12:12;7.70;99.90
18444;DHT22;9350;53.176;8.194;2023-04-12T04:14:39;7.70;99.90
18444;DHT22;9350;53.176;8.194;2023-04-12T04:17:06;7.70;99.90
18444;DHT22;9350;53.176;8.194;2023-04-12T04:19:34;7.70;99.90
18444;DHT22;9350;53.176;8.194;2023-04-12T04:22:00;7.70;99.90
18444;DHT22;9350;53.176;8.194;2023-04-12T04:24:27;7.70;99.90
18444;DHT22;9350;53.176;8.194;2023-04-12T04:26:54;7.70;99.90
18444;DHT22;9350;53.176;8.194;2023-04-12T04:29:21;7.70;99.90
18444;DHT22;9350;53.176;8.194;2023-04-12T04:31:48;7.70;99.90
18444;DHT22;9350;53.176;8.194;2023-04-12T04:34:15;7.70;99.90
18444;DHT22;9350;53.176;8.194;2023-04-12T04:36:44;7.70;99.90
18444;DHT22;9350;53.176;8.194;2023-04-12T04:39:11;7.70;99.90
18444;DHT22;9350;53.176;8.194;2023-04-12T04:41:38;7.70;99.90
18444;DHT22;9350;53.176;8.194;2023-04-12T04:44:05;7.70;99.90
18444;DHT22;9350;53.176;8.194;2023-04-12T04:46:34;7.80;99.90
18444;DHT22;9350;53.176;8.194;2023-04-12T04:49:02;7.80;99.90
18444;DHT22;9350;53.176;8.194;2023-04-12T04:51:29;7.80;99.90
18444;DHT22;9350;53.176;8.194;2023-04-12T04:53:57;7.80;99.90
18444;DHT22;9350;53.176;8.194;2023-04-12T04:56:24;7.80;99.90
18444;DHT22;9350;53.176;8.194;2023-04-12T04:58:51;7.80;99.90
18444;DHT22;9350;53.176;8.194;2023-04-12T05:01:18;7.90;99.90
18444;DHT22;9350;53.176;8.194;2023-04-12T05:03:44;7.90;99.90
18444;DHT22;9350;53.176;8.194;2023-04-12T05:06:14;7.90;99.90
18444;DHT22;9350;53.176;8.194;2023-04-12T05:08:40;7.90;99.90
18444;DHT22;9350;53.176;8.194;2023-04-12T05:11:08;7.90;99.90
18444;DHT22;9350;53.176;8.194;2023-04-12T05:13:35;7.90;99.90
18444;DHT22;9350;53.176;8.194;2023-04-12T05:16:05;7.90;99.90
18444;DHT22;9350;53.176;8.194;2023-04-12T05:18:32;7.90;99.90
18444;DHT22;9350;53.176;8.194;2023-04-12T05:21:01;8.00;99.90
18444;DHT22;9350;53.176;8.194;2023-04-12T05:23:28;8.00;99.90
18444;DHT22;9350;53.176;8.194;2023-04-12T05:25:54;8.00;99.90
18444;DHT22;9350;53.176;8.194;2023-04-12T05:28:22;8.10;99.90
18444;DHT22;9350;53.176;8.194;2023-04-12T05:30:49;8.20;99.90
18444;DHT22;9350;53.176;8.194;2023-04-12T05:33:16;8.20;99.90
18444;DHT22;9350;53.176;8.194;2023-04-12T05:35:43;8.20;99.90
18444;DHT22;9350;53.176;8.194;2023-04-12T05:38:09;8.20;99.90
18444;DHT22;9350;53.176;8.194;2023-04-12T05:40:36;8.20;99.90
18444;DHT22;9350;53.176;8.194;2023-04-12T05:43:03;8.20;99.90
18444;DHT22;9350;53.176;8.194;2023-04-12T05:45:31;8.30;99.90
18444;DHT22;9350;53.176;8.194;2023-04-12T05:47:58;8.30;99.90
18444;DHT22;9350;53.176;8.194;2023-04-12T05:50:24;8.30;99.90
18444;DHT22;9350;53.176;8.194;2023-04-12T05:52:51;8.30;99.90
18444;DHT22;9350;53.176;8.194;2023-04-12T05:55:18;8.30;99.90
18444;DHT22;9350;53.176;8.194;2023-04-12T05:57:46;8.40;99.90
18444;DHT22;9350;53.176;8.194;2023-04-12T06:00:13;8.40;99.90
18444;DHT22;9350;53.176;8.194;2023-04-12T06:02:44;8.40;99.90
18444;DHT22;9350;53.176;8.194;2023-04-12T06:05:12;8.40;99.90
18444;DHT22;9350;53.176;8.194;2023-04-12T06:07:39;8.40;99.90
18444;DHT22;9350;53.176;8.194;2023-04-12T06:10:07;8.40;99.90
18444;DHT22;9350;53.176;8.194;2023-04-12T06:12:34;8.40;99.90
18444;DHT22;9350;53.176;8.194;2023-04-12T06:15:01;8.50;99.90
18444;DHT22;9350;53.176;8.194;2023-04-12T06:17:27;8.50;99.90
18444;DHT22;9350;53.176;8.194;2023-04-12T06:19:55;8.60;99.90
18444;DHT22;9350;53.176;8.194;2023-04-12T06:22:22;8.60;99.90
18444;DHT22;9350;53.176;8.194;2023-04-12T06:24:49;8.60;99.90
18444;DHT22;9350;53.176;8.194;2023-04-12T06:27:16;8.60;99.90
18444;DHT22;9350;53.176;8.194;2023-04-12T06:29:45;8.60;99.90
18444;DHT22;9350;53.176;8.194;2023-04-12T06:32:11;8.70;99.90
18444;DHT22;9350;53.176;8.194;2023-04-12T06:34:38;8.70;99.90
18444;DHT22;9350;53.176;8.194;2023-04-12T06:37:06;8.70;99.90
18444;DHT22;9350;53.176;8.194;2023-04-12T06:39:33;8.70;99.90
18444;DHT22;9350;53.176;8.194;2023-04-12T06:42:00;8.70;99.90
18444;DHT22;9350;53.176;8.194;2023-04-12T06:44:27;8.80;99.90
18444;DHT22;9350;53.176;8.194;2023-04-12T06:46:53;8.80;99.90
18444;DHT22;9350;53.176;8.194;2023-04-12T06:49:20;8.80;99.90
18444;DHT22;9350;53.176;8.194;2023-04-12T06:51:47;8.90;99.90
18444;DHT22;9350;53.176;8.194;2023-04-12T06:54:15;8.90;99.90
18444;DHT22;9350;53.176;8.194;2023-04-12T06:56:41;8.90;99.90
18444;DHT22;9350;53.176;8.194;2023-04-12T06:59:08;8.90;99.90
18444;DHT22;9350;53.176;8.194;2023-04-12T07:01:35;8.90;99.90
18444;DHT22;9350;53.176;8.194;2023-04-12T07:04:02;8.90;99.90
18444;DHT22;9350;53.176;8.194;2023-04-12T07:06:29;8.90;99.90
18444;DHT22;9350;53.176;8.194;2023-04-12T07:08:55;9.00;99.90
18444;DHT22;9350;53.176;8.194;2023-04-12T07:11:23;9.10;99.90
18444;DHT22;9350;53.176;8.194;2023-04-12T07:13:50;9.10;99.90
18444;DHT22;9350;53.176;8.194;2023-04-12T07:16:17;9.10;99.90
18444;DHT22;9350;53.176;8.194;2023-04-12T07:18:43;9.10;99.90
18444;DHT22;9350;53.176;8.194;2023-04-12T07:21:10;9.20;99.90
18444;DHT22;9350;53.176;8.194;2023-04-12T07:23:38;9.10;99.90
18444;DHT22;9350;53.176;8.194;2023-04-12T07:26:05;9.20;99.90
18444;DHT22;9350;53.176;8.194;2023-04-12T07:28:33;9.20;99.90
18444;DHT22;9350;53.176;8.194;2023-04-12T07:31:04;9.20;99.90
18444;DHT22;9350;53.176;8.194;2023-04-12T07:33:30;9.30;99.90
18444;DHT22;9350;53.176;8.194;2023-04-12T07:35:59;9.30;99.90
18444;DHT22;9350;53.176;8.194;2023-04-12T07:38:26;9.30;99.90
18444;DHT22;9350;53.176;8.194;2023-04-12T07:40:53;9.30;99.90
18444;DHT22;9350;53.176;8.194;2023-04-12T07:43:20;9.40;99.90
18444;DHT22;9350;53.176;8.194;2023-04-12T07:45:49;9.40;99.90
18444;DHT22;9350;53.176;8.194;2023-04-12T07:48:16;9.50;99.90
18444;DHT22;9350;53.176;8.194;2023-04-12T07:50:43;9.40;99.90
18444;DHT22;9350;53.176;8.194;2023-04-12T07:53:19;9.50;99.90
18444;DHT22;9350;53.176;8.194;2023-04-12T07:55:46;9.60;99.90
18444;DHT22;9350;53.176;8.194;2023-04-12T07:58:13;9.50;99.90
18444;DHT22;9350;53.176;8.194;2023-04-12T08:00:40;9.50;99.90
18444;DHT22;9350;53.176;8.194;2023-04-12T08:03:09;9.50;99.90
18444;DHT22;9350;53.176;8.194;2023-04-12T08:05:36;9.50;99.90
18444;DHT22;9350;53.176;8.194;2023-04-12T08:08:03;9.50;99.90
18444;DHT22;9350;53.176;8.194;2023-04-12T08:10:30;9.60;99.90
18444;DHT22;9350;53.176;8.194;2023-04-12T08:12:57;9.50;99.90
18444;DHT22;9350;53.176;8.194;2023-04-12T08:15:24;9.50;99.90
18444;DHT22;9350;53.176;8.194;2023-04-12T08:17:51;9.60;99.90
18444;DHT22;9350;53.176;8.194;2023-04-12T08:20:19;9.50;99.90
18444;DHT22;9350;53.176;8.194;2023-04-12T08:22:46;9.50;99.90
18444;DHT22;9350;53.176;8.194;2023-04-12T08:25:14;9.50;99.90
18444;DHT22;9350;53.176;8.194;2023-04-12T08:27:41;9.50;99.90
18444;DHT22;9350;53.176;8.194;2023-04-12T08:30:09;9.50;99.90
18444;DHT22;9350;53.176;8.194;2023-04-12T08:32:37;9.40;99.90
18444;DHT22;9350;53.176;8.194;2023-04-12T08:35:04;9.40;99.90
18444;DHT22;9350;53.176;8.194;2023-04-12T08:37:33;9.30;99.90
18444;DHT22;9350;53.176;8.194;2023-04-12T08:40:03;9.40;99.90
18444;DHT22;9350;53.176;8.194;2023-04-12T08:42:31;9.40;99.90
18444;DHT22;9350;53.176;8.194;2023-04-12T08:45:03;9.40;99.90
18444;DHT22;9350;53.176;8.194;2023-04-12T08:47:31;9.40;99.90
18444;DHT22;9350;53.176;8.194;2023-04-12T08:49:59;9.30;99.90
18444;DHT22;9350;53.176;8.194;2023-04-12T08:52:26;9.30;99.90
18444;DHT22;9350;53.176;8.194;2023-04-12T08:54:55;9.40;99.90
18444;DHT22;9350;53.176;8.194;2023-04-12T08:57:22;9.30;99.90
18444;DHT22;9350;53.176;8.194;2023-04-12T08:59:49;9.30;99.90
18444;DHT22;9350;53.176;8.194;2023-04-12T09:02:17;9.30;99.90
18444;DHT22;9350;53.176;8.194;2023-04-12T09:04:48;9.30;99.90
18444;DHT22;9350;53.176;8.194;2023-04-12T09:07:15;9.20;99.90
18444;DHT22;9350;53.176;8.194;2023-04-12T09:09:42;9.30;99.90
18444;DHT22;9350;53.176;8.194;2023-04-12T09:12:11;9.20;99.90
18444;DHT22;9350;53.176;8.194;2023-04-12T09:14:39;9.30;99.90
18444;DHT22;9350;53.176;8.194;2023-04-12T09:17:20;9.30;99.90
18444;DHT22;9350;53.176;8.194;2023-04-12T09:19:47;9.30;99.90
18444;DHT22;9350;53.176;8.194;2023-04-12T09:22:14;9.40;99.90
18444;DHT22;9350;53.176;8.194;2023-04-12T09:24:48;9.40;99.90
18444;DHT22;9350;53.176;8.194;2023-04-12T09:27:18;9.30;99.90
18444;DHT22;9350;53.176;8.194;2023-04-12T09:29:46;9.30;99.90
18444;DHT22;9350;53.176;8.194;2023-04-12T09:32:23;9.30;99.90
18444;DHT22;9350;53.176;8.194;2023-04-12T09:34:54;9.30;99.90
18444;DHT22;9350;53.176;8.194;2023-04-12T09:37:22;9.40;99.90
18444;DHT22;9350;53.176;8.194;2023-04-12T09:39:58;9.50;99.90
18444;DHT22;9350;53.176;8.194;2023-04-12T09:42:27;9.40;99.90
18444;DHT22;9350;53.176;8.194;2023-04-12T09:44:56;9.40;99.90
18444;DHT22;9350;53.176;8.194;2023-04-12T09:47:24;9.40;99.90
18444;DHT22;9350;53.176;8.194;2023-04-12T09:50:01;9.50;99.90
18444;DHT22;9350;53.176;8.194;2023-04-12T09:52:34;9.50;99.90
18444;DHT22;9350;53.176;8.194;2023-04-12T09:55:02;9.60;99.90
18444;DHT22;9350;53.176;8.194;2023-04-12T09:57:37;9.60;99.90
18444;DHT22;9350;53.176;8.194;2023-04-12T10:00:06;9.50;99.90
18444;DHT22;9350;53.176;8.194;2023-04-12T10:02:37;9.60;99.90
18444;DHT22;9350;53.176;8.194;2023-04-12T10:05:06;9.70;99.90
18444;DHT22;9350;53.176;8.194;2023-04-12T10:07:35;9.70;99.90
18444;DHT22;9350;53.176;8.194;2023-04-12T10:10:03;9.60;99.90
18444;DHT22;9350;53.176;8.194;2023-04-12T10:12:31;9.70;99.90
18444;DHT22;9350;53.176;8.194;2023-04-12T10:15:03;9.60;99.90
18444;DHT22;9350;53.176;8.194;2023-04-12T10:17:31;9.70;99.90
18444;DHT22;9350;53.176;8.194;2023-04-12T10:20:00;9.70;99.90
18444;DHT22;9350;53.176;8.194;2023-04-12T10:22:29;9.70;99.90
18444;DHT22;9350;53.176;8.194;2023-04-12T10:24:56;9.60;99.90
18444;DHT22;9350;53.176;8.194;2023-04-12T10:27:25;9.60;99.90
18444;DHT22;9350;53.176;8.194;2023-04-12T10:29:53;9.70;99.90
18444;DHT22;9350;53.176;8.194;2023-04-12T10:32:22;9.60;99.90
18444;DHT22;9350;53.176;8.194;2023-04-12T10:34:49;9.60;99.90
18444;DHT22;9350;53.176;8.194;2023-04-12T10:37:17;9.60;99.90
18444;DHT22;9350;53.176;8.194;2023-04-12T10:39:45;9.60;99.90
18444;DHT22;9350;53.176;8.194;2023-04-12T10:42:21;9.60;99.90
18444;DHT22;9350;53.176;8.194;2023-04-12T10:44:48;9.60;99.90
18444;DHT22;9350;53.176;8.194;2023-04-12T10:47:29;9.60;99.90
18444;DHT22;9350;53.176;8.194;2023-04-12T10:50:20;9.70;99.90
18444;DHT22;9350;53.176;8.194;2023-04-12T10:53:22;9.70;99.90
18444;DHT22;9350;53.176;8.194;2023-04-12T10:55:51;9.70;99.90
18444;DHT22;9350;53.176;8.194;2023-04-12T10:58:53;9.80;99.90
18444;DHT22;9350;53.176;8.194;2023-04-12T11:01:20;9.70;99.90
18444;DHT22;9350;53.176;8.194;2023-04-12T11:04:11;9.70;99.90
18444;DHT22;9350;53.176;8.194;2023-04-12T11:06:44;9.70;99.90
18444;DHT22;9350;53.176;8.194;2023-04-12T11:09:23;9.70;99.90
18444;DHT22;9350;53.176;8.194;2023-04-12T11:11:51;9.80;99.90
18444;DHT22;9350;53.176;8.194;2023-04-12T11:14:27;9.80;99.90
18444;DHT22;9350;53.176;8.194;2023-04-12T11:17:21;9.70;99.90
18444;DHT22;9350;53.176;8.194;2023-04-12T11:19:55;9.70;99.90
18444;DHT22;9350;53.176;8.194;2023-04-12T11:22:23;9.70;99.90
18444;DHT22;9350;53.176;8.194;2023-04-12T11:24:51;9.80;99.90
18444;DHT22;9350;53.176;8.194;2023-04-12T11:27:19;9.80;99.90
18444;DHT22;9350;53.176;8.194;2023-04-12T11:29:50;9.80;99.90
18444;DHT22;9350;53.176;8.194;2023-04-12T11:32:17;9.90;99.90
18444;DHT22;9350;53.176;8.194;2023-04-12T11:34:45;9.80;99.90
18444;DHT22;9350;53.176;8.194;2023-04-12T11:37:13;9.80;99.90
18444;DHT22;9350;53.176;8.194;2023-04-12T11:39:41;9.80;99.90
18444;DHT22;9350;53.176;8.194;2023-04-12T11:42:12;9.90;99.90
18444;DHT22;9350;53.176;8.194;2023-04-12T11:44:40;10.00;99.90
18444;DHT22;9350;53.176;8.194;2023-04-12T11:47:18;10.00;99.90
18444;DHT22;9350;53.176;8.194;2023-04-12T11:49:47;10.10;99.90
18444;DHT22;9350;53.176;8.194;2023-04-12T11:52:16;10.20;99.90
18444;DHT22;9350;53.176;8.194;2023-04-12T11:54:44;10.20;99.90
18444;DHT22;9350;53.176;8.194;2023-04-12T11:57:13;10.20;99.90
18444;DHT22;9350;53.176;8.194;2023-04-12T11:59:42;10.30;99.90
18444;DHT22;9350;53.176;8.194;2023-04-12T12:02:09;10.30;99.90
18444;DHT22;9350;53.176;8.194;2023-04-12T12:04:36;10.30;99.90
18444;DHT22;9350;53.176;8.194;2023-04-12T12:07:04;10.30;99.90
18444;DHT22;9350;53.176;8.194;2023-04-12T12:09:34;10.40;99.90
18444;DHT22;9350;53.176;8.194;2023-04-12T12:12:01;10.40;99.90
18444;DHT22;9350;53.176;8.194;2023-04-12T12:14:28;10.40;99.90
18444;DHT22;9350;53.176;8.194;2023-04-12T12:16:59;10.30;99.90
18444;DHT22;9350;53.176;8.194;2023-04-12T12:19:27;10.30;99.90
18444;DHT22;9350;53.176;8.194;2023-04-12T12:22:05;10.30;99.90
18444;DHT22;9350;53.176;8.194;2023-04-12T12:24:33;10.30;99.90
18444;DHT22;9350;53.176;8.194;2023-04-12T12:27:00;10.20;99.90
18444;DHT22;9350;53.176;8.194;2023-04-12T12:29:34;10.30;99.90
18444;DHT22;9350;53.176;8.194;2023-04-12T12:32:02;10.20;99.90
18444;DHT22;9350;53.176;8.194;2023-04-12T12:34:31;10.20;99.90
18444;DHT22;9350;53.176;8.194;2023-04-12T12:36:58;10.20;99.90
18444;DHT22;9350;53.176;8.194;2023-04-12T12:39:25;10.20;99.90
18444;DHT22;9350;53.176;8.194;2023-04-12T12:41:54;10.10;99.90
18444;DHT22;9350;53.176;8.194;2023-04-12T12:44:21;10.10;99.90
18444;DHT22;9350;53.176;8.194;2023-04-12T12:46:47;10.10;99.90
18444;DHT22;9350;53.176;8.194;2023-04-12T12:49:14;10.20;99.90
18444;DHT22;9350;53.176;8.194;2023-04-12T12:51:41;10.20;99.90
18444;DHT22;9350;53.176;8.194;2023-04-12T12:54:08;10.20;99.90
18444;DHT22;9350;53.176;8.194;2023-04-12T12:56:35;10.20;99.90
18444;DHT22;9350;53.176;8.194;2023-04-12T12:59:03;10.20;99.90
18444;DHT22;9350;53.176;8.194;2023-04-12T13:01:29;10.30;99.90
18444;DHT22;9350;53.176;8.194;2023-04-12T13:03:56;10.30;99.90
18444;DHT22;9350;53.176;8.194;2023-04-12T13:06:23;10.40;99.90
18444;DHT22;9350;53.176;8.194;2023-04-12T13:08:52;10.40;99.90
18444;DHT22;9350;53.176;8.194;2023-04-12T13:11:20;10.50;99.90
18444;DHT22;9350;53.176;8.194;2023-04-12T13:13:47;10.50;99.90
18444;DHT22;9350;53.176;8.194;2023-04-12T13:16:15;10.60;99.90
18444;DHT22;9350;53.176;8.194;2023-04-12T13:18:42;10.60;99.90
18444;DHT22;9350;53.176;8.194;2023-04-12T13:21:09;10.60;99.90
18444;DHT22;9350;53.176;8.194;2023-04-12T13:23:36;10.60;99.90
18444;DHT22;9350;53.176;8.194;2023-04-12T13:26:03;10.70;99.90
18444;DHT22;9350;53.176;8.194;2023-04-12T13:28:30;10.80;99.90
18444;DHT22;9350;53.176;8.194;2023-04-12T13:30:57;10.90;99.90
18444;DHT22;9350;53.176;8.194;2023-04-12T13:33:25;10.90;99.90
18444;DHT22;9350;53.176;8.194;2023-04-12T13:35:51;11.00;99.90
18444;DHT22;9350;53.176;8.194;2023-04-12T13:38:18;11.00;99.90
18444;DHT22;9350;53.176;8.194;2023-04-12T13:40:45;11.10;99.90
18444;DHT22;9350;53.176;8.194;2023-04-12T13:43:12;11.20;99.90
18444;DHT22;9350;53.176;8.194;2023-04-12T13:45:38;11.20;99.90
18444;DHT22;9350;53.176;8.194;2023-04-12T13:48:05;11.30;99.90
18444;DHT22;9350;53.176;8.194;2023-04-12T13:50:33;11.20;99.90
18444;DHT22;9350;53.176;8.194;2023-04-12T13:53:00;11.30;99.90
18444;DHT22;9350;53.176;8.194;2023-04-12T13:55:27;11.30;99.90
18444;DHT22;9350;53.176;8.194;2023-04-12T13:57:54;11.20;99.90
18444;DHT22;9350;53.176;8.194;2023-04-12T14:00:21;11.10;99.90
18444;DHT22;9350;53.176;8.194;2023-04-12T14:02:48;11.10;99.90
18444;DHT22;9350;53.176;8.194;2023-04-12T14:05:15;11.10;99.90
18444;DHT22;9350;53.176;8.194;2023-04-12T14:07:43;11.00;99.90
18444;DHT22;9350;53.176;8.194;2023-04-12T14:10:10;11.00;99.90
18444;DHT22;9350;53.176;8.194;2023-04-12T14:12:36;11.00;99.90
18444;DHT22;9350;53.176;8.194;2023-04-12T14:15:04;11.00;99.90
18444;DHT22;9350;53.176;8.194;2023-04-12T14:17:31;11.00;99.90
18444;DHT22;9350;53.176;8.194;2023-04-12T14:19:57;11.00;99.90
18444;DHT22;9350;53.176;8.194;2023-04-12T14:22:24;11.10;99.90
18444;DHT22;9350;53.176;8.194;2023-04-12T14:24:52;11.10;99.90
18444;DHT22;9350;53.176;8.194;2023-04-12T14:27:19;11.10;99.90
18444;DHT22;9350;53.176;8.194;2023-04-12T14:29:46;11.10;99.90
18444;DHT22;9350;53.176;8.194;2023-04-12T14:32:13;11.00;99.90
18444;DHT22;9350;53.176;8.194;2023-04-12T14:34:40;11.00;99.90
18444;DHT22;9350;53.176;8.194;2023-04-12T14:37:08;11.10;99.90
18444;DHT22;9350;53.176;8.194;2023-04-12T14:39:35;11.10;99.90
18444;DHT22;9350;53.176;8.194;2023-04-12T14:42:04;11.10;99.90
18444;DHT22;9350;53.176;8.194;2023-04-12T14:44:31;11.10;99.90
18444;DHT22;9350;53.176;8.194;2023-04-12T14:46:58;11.20;99.90
18444;DHT22;9350;53.176;8.194;2023-04-12T14:49:24;11.30;99.90
18444;DHT22;9350;53.176;8.194;2023-04-12T14:51:51;11.30;99.90
18444;DHT22;9350;53.176;8.194;2023-04-12T14:54:19;11.30;99.90
18444;DHT22;9350;53.176;8.194;2023-04-12T14:56:46;11.40;99.90
18444;DHT22;9350;53.176;8.194;2023-04-12T14:59:17;11.40;99.90
18444;DHT22;9350;53.176;8.194;2023-04-12T15:01:43;11.50;99.90
18444;DHT22;9350;53.176;8.194;2023-04-12T15:04:10;11.50;99.90
18444;DHT22;9350;53.176;8.194;2023-04-12T15:06:37;11.40;99.90
18444;DHT22;9350;53.176;8.194;2023-04-12T15:09:07;11.40;99.90
18444;DHT22;9350;53.176;8.194;2023-04-12T15:11:34;11.40;99.90
18444;DHT22;9350;53.176;8.194;2023-04-12T15:14:02;11.30;99.90
18444;DHT22;9350;53.176;8.194;2023-04-12T15:16:32;11.30;99.90
18444;DHT22;9350;53.176;8.194;2023-04-12T15:19:00;11.40;99.90
18444;DHT22;9350;53.176;8.194;2023-04-12T15:21:27;11.30;99.90
18444;DHT22;9350;53.176;8.194;2023-04-12T15:23:54;11.40;99.90
18444;DHT22;9350;53.176;8.194;2023-04-12T15:26:22;11.40;99.90
18444;DHT22;9350;53.176;8.194;2023-04-12T15:28:49;11.40;99.90
18444;DHT22;9350;53.176;8.194;2023-04-12T15:31:15;11.40;99.90
18444;DHT22;9350;53.176;8.194;2023-04-12T15:33:44;11.30;99.90
18444;DHT22;9350;53.176;8.194;2023-04-12T15:36:11;11.40;99.90
18444;DHT22;9350;53.176;8.194;2023-04-12T15:38:41;11.40;99.90
18444;DHT22;9350;53.176;8.194;2023-04-12T15:41:09;11.40;99.90
18444;DHT22;9350;53.176;8.194;2023-04-12T15:43:36;11.50;99.90
18444;DHT22;9350;53.176;8.194;2023-04-12T15:46:02;11.50;99.90
18444;DHT22;9350;53.176;8.194;2023-04-12T15:48:29;11.40;99.90
18444;DHT22;9350;53.176;8.194;2023-04-12T15:50:58;11.50;99.90
18444;DHT22;9350;53.176;8.194;2023-04-12T15:53:25;11.50;99.90
18444;DHT22;9350;53.176;8.194;2023-04-12T15:55:52;11.50;99.90
18444;DHT22;9350;53.176;8.194;2023-04-12T15:58:20;11.40;99.90
18444;DHT22;9350;53.176;8.194;2023-04-12T16:00:47;11.40;99.90
18444;DHT22;9350;53.176;8.194;2023-04-12T16:03:14;11.30;99.90
18444;DHT22;9350;53.176;8.194;2023-04-12T16:05:44;11.30;99.90